sensor_id;sensor_type;location;lat;lon;timestamp;P1;durP1;ratioP1;P2;durP2;ratioP2
2408;SDS011;8463;48.094;7.970;2023-03-01T00:02:01;12.05;;;8.30;;
2408;SDS011;8463;48.094;7.970;2023-03-01T00:04:27;13.17;;;7.90;;
2408;SDS011;8463;48.094;7.970;2023-03-01T00:06:52;16.73;;;8.43;;
2408;SDS011;8463;48.094;7.970;2023-03-01T00:09:21;10.47;;;7.70;;
2408;SDS011;8463;48.094;7.970;2023-03-01T00:11:46;10.33;;;7.30;;
2408;SDS011;8463;48.094;7.970;2023-03-01T00:14:12;15.30;;;7.53;;
2408;SDS011;8463;48.094;7.970;2023-03-01T00:16:39;11.87;;;7.90;;
2408;SDS011;8463;48.094;7.970;2023-03-01T00:19:07;13.57;;;7.97;;
2408;SDS011;8463;48.094;7.970;2023-03-01T00:21:36;9.47;;;7.23;;
2408;SDS011;8463;48.094;7.970;2023-03-01T00:24:02;8.87;;;7.87;;
2408;SDS011;8463;48.094;7.970;2023-03-01T00:26:30;10.03;;;7.17;;
2408;SDS011;8463;48.094;7.970;2023-03-01T00:28:56;13.37;;;8.20;;
2408;SDS011;8463;48.094;7.970;2023-03-01T00:31:24;9.33;;;6.43;;
2408;SDS011;8463;48.094;7.970;2023-03-01T00:33:52;11.50;;;8.20;;
2408;SDS011;8463;48.094;7.970;2023-03-01T00:36:22;14.90;;;7.70;;
2408;SDS011;8463;48.094;7.970;2023-03-01T00:38:48;12.23;;;8.37;;
2408;SDS011;8463;48.094;7.970;2023-03-01T00:41:15;10.00;;;7.30;;
2408;SDS011;8463;48.094;7.970;2023-03-01T00:43:42;8.77;;;7.00;;
2408;SDS011;8463;48.094;7.970;2023-03-01T00:46:09;15.00;;;8.53;;
2408;SDS011;8463;48.094;7.970;2023-03-01T00:48:38;9.23;;;7.83;;
2408;SDS011;8463;48.094;7.970;2023-03-01T00:51:07;10.77;;;8.65;;
2408;SDS011;8463;48.094;7.970;2023-03-01T00:53:35;13.10;;;8.17;;
2408;SDS011;8463;48.094;7.970;2023-03-01T00:56:02;10.97;;;6.70;;
2408;SDS011;8463;48.094;7.970;2023-03-01T00:58:29;10.13;;;6.73;;
2408;SDS011;8463;48.094;7.970;2023-03-01T01:00:55;11.10;;;7.38;;
2408;SDS011;8463;48.094;7.970;2023-03-01T01:03:21;11.77;;;6.83;;
2408;SDS011;8463;48.094;7.970;2023-03-01T01:05:49;11.43;;;8.20;;
2408;SDS011;8463;48.094;7.970;2023-03-01T01:08:16;10.00;;;8.30;;
2408;SDS011;8463;48.094;7.970;2023-03-01T01:10:43;9.57;;;6.30;;
2408;SDS011;8463;48.094;7.970;2023-03-01T01:13:09;7.43;;;6.27;;
2408;SDS011;8463;48.094;7.970;2023-03-01T01:15:35;8.43;;;6.47;;
2408;SDS011;8463;48.094;7.970;2023-03-01T01:18:03;10.67;;;7.43;;
2408;SDS011;8463;48.094;7.970;2023-03-01T01:20:29;8.43;;;7.27;;
2408;SDS011;8463;48.094;7.970;2023-03-01T01:22:55;10.13;;;6.80;;
2408;SDS011;8463;48.094;7.970;2023-03-01T01:25:20;12.80;;;8.67;;
2408;SDS011;8463;48.094;7.970;2023-03-01T01:27:46;9.97;;;7.57;;
2408;SDS011;8463;48.094;7.970;2023-03-01T01:30:11;8.17;;;6.93;;
2408;SDS011;8463;48.094;7.970;2023-03-01T01:32:38;10.80;;;7.23;;
2408;SDS011;8463;48.094;7.970;2023-03-01T01:35:03;9.33;;;6.00;;
2408;SDS011;8463;48.094;7.970;2023-03-01T01:37:30;9.80;;;6.23;;
2408;SDS011;8463;48.094;7.970;2023-03-01T01:39:58;7.47;;;6.13;;
2408;SDS011;8463;48.094;7.970;2023-03-01T01:42:25;7.27;;;6.00;;
2408;SDS011;8463;48.094;7.970;2023-03-01T01:48:03;8.13;;;6.53;;
2408;SDS011;8463;48.094;7.970;2023-03-01T01:50:35;9.73;;;7.50;;
2408;SDS011;8463;48.094;7.970;2023-03-01T01:53:05;7.67;;;6.23;;
2408;SDS011;8463;48.094;7.970;2023-03-01T01:55:35;10.20;;;7.97;;
2408;SDS011;8463;48.094;7.970;2023-03-01T01:58:06;9.10;;;7.07;;
2408;SDS011;8463;48.094;7.970;2023-03-01T02:00:35;10.93;;;7.45;;
2408;SDS011;8463;48.094;7.970;2023-03-01T02:03:14;6.90;;;5.63;;
2408;SDS011;8463;48.094;7.970;2023-03-01T02:08:18;18.92;;;7.20;;
2408;SDS011;8463;48.094;7.970;2023-03-01T02:10:45;11.33;;;7.87;;
2408;SDS011;8463;48.094;7.970;2023-03-01T02:13:13;14.03;;;7.13;;
2408;SDS011;8463;48.094;7.970;2023-03-01T02:15:39;10.00;;;6.87;;
2408;SDS011;8463;48.094;7.970;2023-03-01T02:18:06;9.35;;;6.32;;
2408;SDS011;8463;48.094;7.970;2023-03-01T02:23:13;8.37;;;6.60;;
2408;SDS011;8463;48.094;7.970;2023-03-01T02:28:46;9.50;;;8.15;;
2408;SDS011;8463;48.094;7.970;2023-03-01T02:31:16;9.83;;;7.37;;
2408;SDS011;8463;48.094;7.970;2023-03-01T02:34:02;14.60;;;7.77;;
2408;SDS011;8463;48.094;7.970;2023-03-01T02:36:31;11.00;;;7.40;;
2408;SDS011;8463;48.094;7.970;2023-03-01T02:39:03;11.53;;;7.67;;
2408;SDS011;8463;48.094;7.970;2023-03-01T02:41:32;17.67;;;8.30;;
2408;SDS011;8463;48.094;7.970;2023-03-01T02:44:01;11.83;;;7.73;;
2408;SDS011;8463;48.094;7.970;2023-03-01T02:46:28;10.40;;;8.07;;
2408;SDS011;8463;48.094;7.970;2023-03-01T02:48:55;9.50;;;7.37;;
2408;SDS011;8463;48.094;7.970;2023-03-01T02:51:38;10.25;;;7.35;;
2408;SDS011;8463;48.094;7.970;2023-03-01T02:56:53;13.00;;;8.00;;
2408;SDS011;8463;48.094;7.970;2023-03-01T02:59:21;13.05;;;8.80;;
2408;SDS011;8463;48.094;7.970;2023-03-01T03:01:49;8.60;;;7.53;;
2408;SDS011;8463;48.094;7.970;2023-03-01T03:04:15;13.53;;;7.27;;
2408;SDS011;8463;48.094;7.970;2023-03-01T03:06:43;8.00;;;6.57;;
2408;SDS011;8463;48.094;7.970;2023-03-01T03:09:10;9.70;;;7.25;;
2408;SDS011;8463;48.094;7.970;2023-03-01T03:11:37;9.50;;;6.63;;
2408;SDS011;8463;48.094;7.970;2023-03-01T03:14:04;8.90;;;7.70;;
2408;SDS011;8463;48.094;7.970;2023-03-01T03:16:30;12.97;;;8.67;;
2408;SDS011;8463;48.094;7.970;2023-03-01T03:18:56;11.40;;;7.53;;
2408;SDS011;8463;48.094;7.970;2023-03-01T03:21:30;11.05;;;7.60;;
2408;SDS011;8463;48.094;7.970;2023-03-01T03:23:57;10.17;;;7.90;;
2408;SDS011;8463;48.094;7.970;2023-03-01T03:26:23;9.03;;;7.93;;
2408;SDS011;8463;48.094;7.970;2023-03-01T03:28:49;12.70;;;8.55;;
2408;SDS011;8463;48.094;7.970;2023-03-01T03:31:15;11.00;;;7.57;;
2408;SDS011;8463;48.094;7.970;2023-03-01T03:33:41;9.93;;;7.47;;
2408;SDS011;8463;48.094;7.970;2023-03-01T03:36:07;12.63;;;7.13;;
2408;SDS011;8463;48.094;7.970;2023-03-01T03:38:38;13.65;;;8.40;;
2408;SDS011;8463;48.094;7.970;2023-03-01T03:41:05;13.20;;;7.80;;
2408;SDS011;8463;48.094;7.970;2023-03-01T03:43:36;10.00;;;7.10;;
2408;SDS011;8463;48.094;7.970;2023-03-01T03:46:02;8.77;;;7.23;;
2408;SDS011;8463;48.094;7.970;2023-03-01T03:48:31;15.77;;;9.52;;
2408;SDS011;8463;48.094;7.970;2023-03-01T03:51:01;10.63;;;7.95;;
2408;SDS011;8463;48.094;7.970;2023-03-01T03:53:27;11.17;;;8.20;;
2408;SDS011;8463;48.094;7.970;2023-03-01T03:55:56;12.07;;;7.27;;
2408;SDS011;8463;48.094;7.970;2023-03-01T03:58:23;11.10;;;7.40;;
2408;SDS011;8463;48.094;7.970;2023-03-01T04:00:51;13.70;;;7.43;;
2408;SDS011;8463;48.094;7.970;2023-03-01T04:03:19;19.13;;;13.30;;
2408;SDS011;8463;48.094;7.970;2023-03-01T04:05:45;15.70;;;10.30;;
2408;SDS011;8463;48.094;7.970;2023-03-01T04:08:11;11.65;;;9.25;;
2408;SDS011;8463;48.094;7.970;2023-03-01T04:10:47;11.73;;;7.90;;
2408;SDS011;8463;48.094;7.970;2023-03-01T04:13:16;14.47;;;9.67;;
2408;SDS011;8463;48.094;7.970;2023-03-01T04:15:44;11.27;;;7.60;;
2408;SDS011;8463;48.094;7.970;2023-03-01T04:18:12;10.70;;;7.72;;
2408;SDS011;8463;48.094;7.970;2023-03-01T04:20:40;13.43;;;7.75;;
2408;SDS011;8463;48.094;7.970;2023-03-01T04:23:09;12.80;;;8.13;;
2408;SDS011;8463;48.094;7.970;2023-03-01T04:28:27;12.07;;;7.82;;
2408;SDS011;8463;48.094;7.970;2023-03-01T04:30:56;12.63;;;7.35;;
2408;SDS011;8463;48.094;7.970;2023-03-01T04:33:23;13.60;;;8.90;;
2408;SDS011;8463;48.094;7.970;2023-03-01T04:35:50;13.50;;;8.83;;
2408;SDS011;8463;48.094;7.970;2023-03-01T04:38:19;12.52;;;8.35;;
2408;SDS011;8463;48.094;7.970;2023-03-01T04:40:47;14.63;;;9.23;;
2408;SDS011;8463;48.094;7.970;2023-03-01T04:43:13;10.80;;;7.93;;
2408;SDS011;8463;48.094;7.970;2023-03-01T04:45:42;13.60;;;8.50;;
2408;SDS011;8463;48.094;7.970;2023-03-01T04:48:11;15.68;;;8.82;;
2408;SDS011;8463;48.094;7.970;2023-03-01T04:50:36;15.47;;;9.20;;
2408;SDS011;8463;48.094;7.970;2023-03-01T04:53:02;11.97;;;8.80;;
2408;SDS011;8463;48.094;7.970;2023-03-01T04:55:28;21.13;;;8.10;;
2408;SDS011;8463;48.094;7.970;2023-03-01T04:57:54;15.93;;;9.97;;
2408;SDS011;8463;48.094;7.970;2023-03-01T05:00:20;12.15;;;8.75;;
2408;SDS011;8463;48.094;7.970;2023-03-01T05:02:57;14.10;;;8.20;;
2408;SDS011;8463;48.094;7.970;2023-03-01T05:05:26;11.20;;;8.80;;
2408;SDS011;8463;48.094;7.970;2023-03-01T05:07:57;12.52;;;8.07;;
2408;SDS011;8463;48.094;7.970;2023-03-01T05:10:25;13.33;;;9.93;;
2408;SDS011;8463;48.094;7.970;2023-03-01T05:12:54;16.30;;;10.13;;
2408;SDS011;8463;48.094;7.970;2023-03-01T05:15:22;17.67;;;9.17;;
2408;SDS011;8463;48.094;7.970;2023-03-01T05:17:50;14.15;;;9.10;;
2408;SDS011;8463;48.094;7.970;2023-03-01T05:20:16;11.57;;;9.40;;
2408;SDS011;8463;48.094;7.970;2023-03-01T05:22:42;12.27;;;10.23;;
2408;SDS011;8463;48.094;7.970;2023-03-01T05:25:08;12.63;;;9.40;;
2408;SDS011;8463;48.094;7.970;2023-03-01T05:27:34;19.30;;;9.90;;
2408;SDS011;8463;48.094;7.970;2023-03-01T05:30:01;15.40;;;11.13;;
2408;SDS011;8463;48.094;7.970;2023-03-01T05:32:38;16.37;;;10.70;;
2408;SDS011;8463;48.094;7.970;2023-03-01T05:35:15;12.10;;;9.37;;
2408;SDS011;8463;48.094;7.970;2023-03-01T05:37:45;14.32;;;9.18;;
2408;SDS011;8463;48.094;7.970;2023-03-01T05:40:13;16.75;;;11.15;;
2408;SDS011;8463;48.094;7.970;2023-03-01T05:42:44;18.07;;;10.40;;
2408;SDS011;8463;48.094;7.970;2023-03-01T05:45:11;15.43;;;11.23;;
2408;SDS011;8463;48.094;7.970;2023-03-01T05:47:41;16.02;;;12.90;;
2408;SDS011;8463;48.094;7.970;2023-03-01T05:50:10;18.17;;;13.60;;
2408;SDS011;8463;48.094;7.970;2023-03-01T05:52:36;18.57;;;13.87;;
2408;SDS011;8463;48.094;7.970;2023-03-01T05:55:01;19.27;;;12.87;;
2408;SDS011;8463;48.094;7.970;2023-03-01T05:57:33;21.60;;;14.87;;
2408;SDS011;8463;48.094;7.970;2023-03-01T05:59:58;19.42;;;14.10;;
2408;SDS011;8463;48.094;7.970;2023-03-01T06:02:24;17.93;;;13.73;;
2408;SDS011;8463;48.094;7.970;2023-03-01T06:04:50;17.33;;;11.50;;
2408;SDS011;8463;48.094;7.970;2023-03-01T06:07:15;18.87;;;12.30;;
2408;SDS011;8463;48.094;7.970;2023-03-01T06:09:41;15.20;;;10.80;;
2408;SDS011;8463;48.094;7.970;2023-03-01T06:12:06;14.80;;;10.43;;
2408;SDS011;8463;48.094;7.970;2023-03-01T06:14:32;13.63;;;10.47;;
2408;SDS011;8463;48.094;7.970;2023-03-01T06:16:58;20.10;;;11.67;;
2408;SDS011;8463;48.094;7.970;2023-03-01T06:19:25;18.20;;;12.27;;
2408;SDS011;8463;48.094;7.970;2023-03-01T06:21:51;19.70;;;14.63;;
2408;SDS011;8463;48.094;7.970;2023-03-01T06:24:17;24.07;;;15.07;;
2408;SDS011;8463;48.094;7.970;2023-03-01T06:26:42;27.37;;;15.13;;
2408;SDS011;8463;48.094;7.970;2023-03-01T06:29:08;18.50;;;11.40;;
2408;SDS011;8463;48.094;7.970;2023-03-01T06:31:33;17.37;;;11.10;;
2408;SDS011;8463;48.094;7.970;2023-03-01T06:33:59;18.37;;;10.67;;
2408;SDS011;8463;48.094;7.970;2023-03-01T06:36:25;21.73;;;12.20;;
2408;SDS011;8463;48.094;7.970;2023-03-01T06:38:50;13.97;;;9.87;;
2408;SDS011;8463;48.094;7.970;2023-03-01T06:41:18;21.07;;;13.33;;
2408;SDS011;8463;48.094;7.970;2023-03-01T06:43:44;23.93;;;14.60;;
2408;SDS011;8463;48.094;7.970;2023-03-01T06:46:10;17.93;;;12.80;;
2408;SDS011;8463;48.094;7.970;2023-03-01T06:48:35;23.40;;;13.30;;
2408;SDS011;8463;48.094;7.970;2023-03-01T06:51:01;17.80;;;11.53;;
2408;SDS011;8463;48.094;7.970;2023-03-01T06:53:27;25.20;;;12.10;;
2408;SDS011;8463;48.094;7.970;2023-03-01T06:55:54;25.27;;;17.13;;
2408;SDS011;8463;48.094;7.970;2023-03-01T06:58:20;24.88;;;17.20;;
2408;SDS011;8463;48.094;7.970;2023-03-01T07:00:46;20.27;;;13.50;;
2408;SDS011;8463;48.094;7.970;2023-03-01T07:03:11;19.60;;;14.00;;
2408;SDS011;8463;48.094;7.970;2023-03-01T07:05:37;20.83;;;12.57;;
2408;SDS011;8463;48.094;7.970;2023-03-01T07:08:02;16.13;;;12.00;;
2408;SDS011;8463;48.094;7.970;2023-03-01T07:10:28;17.93;;;10.23;;
2408;SDS011;8463;48.094;7.970;2023-03-01T07:12:54;17.27;;;11.27;;
2408;SDS011;8463;48.094;7.970;2023-03-01T07:15:21;17.77;;;11.80;;
2408;SDS011;8463;48.094;7.970;2023-03-01T07:17:46;13.50;;;11.17;;
2408;SDS011;8463;48.094;7.970;2023-03-01T07:20:14;16.65;;;10.95;;
2408;SDS011;8463;48.094;7.970;2023-03-01T07:22:40;15.10;;;10.50;;
2408;SDS011;8463;48.094;7.970;2023-03-01T07:25:09;16.42;;;11.73;;
2408;SDS011;8463;48.094;7.970;2023-03-01T07:27:35;15.63;;;10.23;;
2408;SDS011;8463;48.094;7.970;2023-03-01T07:30:01;15.57;;;12.07;;
2408;SDS011;8463;48.094;7.970;2023-03-01T07:32:27;16.02;;;11.18;;
2408;SDS011;8463;48.094;7.970;2023-03-01T07:34:53;16.93;;;11.50;;
2408;SDS011;8463;48.094;7.970;2023-03-01T07:37:19;15.90;;;11.47;;
2408;SDS011;8463;48.094;7.970;2023-03-01T07:39:44;13.37;;;11.30;;
2408;SDS011;8463;48.094;7.970;2023-03-01T07:42:10;20.67;;;13.33;;
2408;SDS011;8463;48.094;7.970;2023-03-01T07:44:35;20.87;;;13.40;;
2408;SDS011;8463;48.094;7.970;2023-03-01T07:47:04;20.38;;;13.25;;
2408;SDS011;8463;48.094;7.970;2023-03-01T07:49:29;16.23;;;11.30;;
2408;SDS011;8463;48.094;7.970;2023-03-01T07:51:55;22.00;;;11.60;;
2408;SDS011;8463;48.094;7.970;2023-03-01T07:54:21;14.13;;;11.37;;
2408;SDS011;8463;48.094;7.970;2023-03-01T07:56:46;17.70;;;12.33;;
2408;SDS011;8463;48.094;7.970;2023-03-01T07:59:12;16.73;;;12.93;;
2408;SDS011;8463;48.094;7.970;2023-03-01T08:01:38;18.80;;;12.97;;
2408;SDS011;8463;48.094;7.970;2023-03-01T08:04:04;15.87;;;12.67;;
2408;SDS011;8463;48.094;7.970;2023-03-01T08:06:33;17.48;;;13.65;;
2408;SDS011;8463;48.094;7.970;2023-03-01T08:08:59;17.10;;;14.53;;
2408;SDS011;8463;48.094;7.970;2023-03-01T08:11:25;22.47;;;16.20;;
2408;SDS011;8463;48.094;7.970;2023-03-01T08:13:53;20.50;;;14.52;;
2408;SDS011;8463;48.094;7.970;2023-03-01T08:16:19;20.83;;;14.68;;
2408;SDS011;8463;48.094;7.970;2023-03-01T08:18:45;20.80;;;16.33;;
2408;SDS011;8463;48.094;7.970;2023-03-01T08:21:11;23.93;;;15.97;;
2408;SDS011;8463;48.094;7.970;2023-03-01T08:23:39;17.70;;;14.67;;
2408;SDS011;8463;48.094;7.970;2023-03-01T08:26:12;24.63;;;15.80;;
2408;SDS011;8463;48.094;7.970;2023-03-01T08:28:40;28.20;;;17.57;;
2408;SDS011;8463;48.094;7.970;2023-03-01T08:31:23;23.97;;;15.23;;
2408;SDS011;8463;48.094;7.970;2023-03-01T08:33:52;19.47;;;13.73;;
2408;SDS011;8463;48.094;7.970;2023-03-01T08:36:22;16.77;;;13.17;;
2408;SDS011;8463;48.094;7.970;2023-03-01T08:38:50;18.23;;;13.00;;
2408;SDS011;8463;48.094;7.970;2023-03-01T08:41:16;20.50;;;13.77;;
2408;SDS011;8463;48.094;7.970;2023-03-01T08:43:42;17.30;;;14.37;;
2408;SDS011;8463;48.094;7.970;2023-03-01T08:46:08;21.33;;;13.70;;
2408;SDS011;8463;48.094;7.970;2023-03-01T08:48:34;20.20;;;14.70;;
2408;SDS011;8463;48.094;7.970;2023-03-01T08:51:10;18.17;;;13.67;;
2408;SDS011;8463;48.094;7.970;2023-03-01T08:53:37;24.27;;;15.07;;
2408;SDS011;8463;48.094;7.970;2023-03-01T08:56:03;25.13;;;15.60;;
2408;SDS011;8463;48.094;7.970;2023-03-01T08:58:29;22.77;;;16.40;;
2408;SDS011;8463;48.094;7.970;2023-03-01T09:00:55;24.93;;;15.87;;
2408;SDS011;8463;48.094;7.970;2023-03-01T09:03:24;18.93;;;13.73;;
2408;SDS011;8463;48.094;7.970;2023-03-01T09:05:50;22.95;;;15.30;;
2408;SDS011;8463;48.094;7.970;2023-03-01T09:08:17;27.33;;;15.77;;
2408;SDS011;8463;48.094;7.970;2023-03-01T09:10:44;19.60;;;14.20;;
2408;SDS011;8463;48.094;7.970;2023-03-01T09:13:09;19.60;;;14.60;;
2408;SDS011;8463;48.094;7.970;2023-03-01T09:15:38;23.50;;;17.23;;
2408;SDS011;8463;48.094;7.970;2023-03-01T09:18:04;19.67;;;14.27;;
2408;SDS011;8463;48.094;7.970;2023-03-01T09:20:31;21.40;;;14.40;;
2408;SDS011;8463;48.094;7.970;2023-03-01T09:22:57;23.70;;;14.37;;
2408;SDS011;8463;48.094;7.970;2023-03-01T09:25:23;19.23;;;13.00;;
2408;SDS011;8463;48.094;7.970;2023-03-01T09:27:52;22.23;;;13.13;;
2408;SDS011;8463;48.094;7.970;2023-03-01T09:30:19;19.67;;;13.70;;
2408;SDS011;8463;48.094;7.970;2023-03-01T09:32:47;18.80;;;14.70;;
2408;SDS011;8463;48.094;7.970;2023-03-01T09:35:13;22.60;;;15.90;;
2408;SDS011;8463;48.094;7.970;2023-03-01T09:37:39;18.97;;;14.20;;
2408;SDS011;8463;48.094;7.970;2023-03-01T09:40:14;24.20;;;14.37;;
2408;SDS011;8463;48.094;7.970;2023-03-01T09:43:26;18.07;;;13.60;;
2408;SDS011;8463;48.094;7.970;2023-03-01T09:45:38;19.70;;;13.43;;
2408;SDS011;8463;48.094;7.970;2023-03-01T09:48:11;19.80;;;14.67;;
2408;SDS011;8463;48.094;7.970;2023-03-01T09:50:41;19.33;;;12.50;;
2408;SDS011;8463;48.094;7.970;2023-03-01T09:53:19;17.87;;;12.33;;
2408;SDS011;8463;48.094;7.970;2023-03-01T09:56:53;24.03;;;15.10;;
2408;SDS011;8463;48.094;7.970;2023-03-01T09:58:58;20.50;;;14.13;;
2408;SDS011;8463;48.094;7.970;2023-03-01T10:01:40;19.80;;;13.30;;
2408;SDS011;8463;48.094;7.970;2023-03-01T10:09:40;17.83;;;13.17;;
2408;SDS011;8463;48.094;7.970;2023-03-01T10:12:14;23.10;;;13.50;;
2408;SDS011;8463;48.094;7.970;2023-03-01T10:17:33;23.77;;;14.70;;
2408;SDS011;8463;48.094;7.970;2023-03-01T10:20:15;16.70;;;12.40;;
2408;SDS011;8463;48.094;7.970;2023-03-01T10:22:45;18.73;;;13.00;;
2408;SDS011;8463;48.094;7.970;2023-03-01T10:25:15;23.13;;;14.37;;
2408;SDS011;8463;48.094;7.970;2023-03-01T10:27:53;16.33;;;10.00;;
2408;SDS011;8463;48.094;7.970;2023-03-01T10:30:28;15.73;;;9.90;;
2408;SDS011;8463;48.094;7.970;2023-03-01T10:35:48;11.03;;;8.90;;
2408;SDS011;8463;48.094;7.970;2023-03-01T10:38:14;16.47;;;9.90;;
2408;SDS011;8463;48.094;7.970;2023-03-01T10:43:26;13.53;;;9.50;;
2408;SDS011;8463;48.094;7.970;2023-03-01T10:45:57;14.87;;;10.30;;
2408;SDS011;8463;48.094;7.970;2023-03-01T10:48:24;11.87;;;9.30;;
2408;SDS011;8463;48.094;7.970;2023-03-01T10:53:40;15.30;;;10.20;;
2408;SDS011;8463;48.094;7.970;2023-03-01T10:56:08;10.80;;;8.23;;
2408;SDS011;8463;48.094;7.970;2023-03-01T10:58:39;11.70;;;9.50;;
2408;SDS011;8463;48.094;7.970;2023-03-01T11:01:25;16.80;;;11.43;;
2408;SDS011;8463;48.094;7.970;2023-03-01T11:06:31;11.93;;;9.30;;
2408;SDS011;8463;48.094;7.970;2023-03-01T11:08:57;11.53;;;8.77;;
2408;SDS011;8463;48.094;7.970;2023-03-01T11:11:52;15.73;;;11.83;;
2408;SDS011;8463;48.094;7.970;2023-03-01T11:14:26;12.90;;;9.23;;
2408;SDS011;8463;48.094;7.970;2023-03-01T11:16:59;11.73;;;8.90;;
2408;SDS011;8463;48.094;7.970;2023-03-01T11:19:30;13.27;;;8.90;;
2408;SDS011;8463;48.094;7.970;2023-03-01T11:22:01;14.23;;;9.10;;
2408;SDS011;8463;48.094;7.970;2023-03-01T11:27:03;12.80;;;8.93;;
2408;SDS011;8463;48.094;7.970;2023-03-01T11:29:44;14.90;;;10.80;;
2408;SDS011;8463;48.094;7.970;2023-03-01T11:32:16;11.40;;;8.53;;
2408;SDS011;8463;48.094;7.970;2023-03-01T11:35:05;13.47;;;9.77;;
2408;SDS011;8463;48.094;7.970;2023-03-01T11:37:56;13.80;;;9.97;;
2408;SDS011;8463;48.094;7.970;2023-03-01T11:40:29;14.17;;;8.93;;
2408;SDS011;8463;48.094;7.970;2023-03-01T11:45:22;12.87;;;8.80;;
2408;SDS011;8463;48.094;7.970;2023-03-01T11:50:38;10.93;;;9.07;;
2408;SDS011;8463;48.094;7.970;2023-03-01T11:56:09;13.33;;;8.73;;
2408;SDS011;8463;48.094;7.970;2023-03-01T12:04:30;12.70;;;9.07;;
2408;SDS011;8463;48.094;7.970;2023-03-01T12:10:25;13.03;;;10.47;;
2408;SDS011;8463;48.094;7.970;2023-03-01T12:13:15;14.93;;;11.50;;
2408;SDS011;8463;48.094;7.970;2023-03-01T12:18:52;14.73;;;10.70;;
2408;SDS011;8463;48.094;7.970;2023-03-01T12:29:34;15.37;;;12.53;;
2408;SDS011;8463;48.094;7.970;2023-03-01T12:35:09;15.03;;;11.80;;
2408;SDS011;8463;48.094;7.970;2023-03-01T12:37:58;15.23;;;11.03;;
2408;SDS011;8463;48.094;7.970;2023-03-01T12:43:31;16.03;;;11.20;;
2408;SDS011;8463;48.094;7.970;2023-03-01T12:51:37;15.20;;;11.70;;
2408;SDS011;8463;48.094;7.970;2023-03-01T12:54:22;12.53;;;10.70;;
2408;SDS011;8463;48.094;7.970;2023-03-01T12:57:00;17.23;;;11.53;;
2408;SDS011;8463;48.094;7.970;2023-03-01T12:59:41;13.20;;;11.00;;
2408;SDS011;8463;48.094;7.970;2023-03-01T13:02:15;13.13;;;10.53;;
2408;SDS011;8463;48.094;7.970;2023-03-01T13:07:47;11.17;;;9.97;;
2408;SDS011;8463;48.094;7.970;2023-03-01T13:10:33;15.70;;;11.70;;
2408;SDS011;8463;48.094;7.970;2023-03-01T13:15:43;12.43;;;10.70;;
2408;SDS011;8463;48.094;7.970;2023-03-01T13:26:06;11.03;;;9.80;;
2408;SDS011;8463;48.094;7.970;2023-03-01T13:44:11;14.43;;;10.80;;
2408;SDS011;8463;48.094;7.970;2023-03-01T13:47:34;13.60;;;9.80;;
2408;SDS011;8463;48.094;7.970;2023-03-01T13:57:38;17.57;;;10.30;;
2408;SDS011;8463;48.094;7.970;2023-03-01T14:00:06;13.83;;;10.90;;
2408;SDS011;8463;48.094;7.970;2023-03-01T14:02:59;16.37;;;11.83;;
2408;SDS011;8463;48.094;7.970;2023-03-01T14:05:29;13.67;;;10.70;;
2408;SDS011;8463;48.094;7.970;2023-03-01T14:07:56;13.90;;;9.63;;
2408;SDS011;8463;48.094;7.970;2023-03-01T14:10:21;12.03;;;10.83;;
2408;SDS011;8463;48.094;7.970;2023-03-01T14:13:06;10.50;;;9.40;;
2408;SDS011;8463;48.094;7.970;2023-03-01T14:19:02;12.97;;;11.20;;
2408;SDS011;8463;48.094;7.970;2023-03-01T14:21:39;14.40;;;11.57;;
2408;SDS011;8463;48.094;7.970;2023-03-01T14:24:04;12.40;;;10.63;;
2408;SDS011;8463;48.094;7.970;2023-03-01T14:26:31;17.20;;;10.57;;
2408;SDS011;8463;48.094;7.970;2023-03-01T14:29:00;13.20;;;11.17;;
2408;SDS011;8463;48.094;7.970;2023-03-01T14:31:36;10.63;;;9.53;;
2408;SDS011;8463;48.094;7.970;2023-03-01T14:34:03;12.83;;;9.80;;
2408;SDS011;8463;48.094;7.970;2023-03-01T14:36:33;11.20;;;10.03;;
2408;SDS011;8463;48.094;7.970;2023-03-01T14:38:59;10.70;;;9.50;;
2408;SDS011;8463;48.094;7.970;2023-03-01T14:41:30;12.07;;;10.77;;
2408;SDS011;8463;48.094;7.970;2023-03-01T14:44:05;12.60;;;10.27;;
2408;SDS011;8463;48.094;7.970;2023-03-01T14:46:38;13.03;;;10.17;;
2408;SDS011;8463;48.094;7.970;2023-03-01T14:51:41;15.80;;;11.40;;
2408;SDS011;8463;48.094;7.970;2023-03-01T14:54:24;13.90;;;12.23;;
2408;SDS011;8463;48.094;7.970;2023-03-01T14:56:52;12.57;;;10.77;;
2408;SDS011;8463;48.094;7.970;2023-03-01T14:59:23;12.80;;;10.20;;
2408;SDS011;8463;48.094;7.970;2023-03-01T15:01:51;14.03;;;10.50;;
2408;SDS011;8463;48.094;7.970;2023-03-01T15:04:20;14.27;;;11.40;;
2408;SDS011;8463;48.094;7.970;2023-03-01T15:06:50;12.73;;;10.20;;
2408;SDS011;8463;48.094;7.970;2023-03-01T15:09:17;12.43;;;11.10;;
2408;SDS011;8463;48.094;7.970;2023-03-01T15:11:43;13.00;;;11.23;;
2408;SDS011;8463;48.094;7.970;2023-03-01T15:14:25;12.20;;;10.47;;
2408;SDS011;8463;48.094;7.970;2023-03-01T15:17:12;13.00;;;10.87;;
2408;SDS011;8463;48.094;7.970;2023-03-01T15:19:49;13.80;;;10.73;;
2408;SDS011;8463;48.094;7.970;2023-03-01T15:22:15;14.17;;;11.33;;
2408;SDS011;8463;48.094;7.970;2023-03-01T15:24:41;16.23;;;11.83;;
2408;SDS011;8463;48.094;7.970;2023-03-01T15:27:16;17.40;;;12.37;;
2408;SDS011;8463;48.094;7.970;2023-03-01T15:30:18;15.50;;;12.53;;
2408;SDS011;8463;48.094;7.970;2023-03-01T15:32:43;15.30;;;12.30;;
2408;SDS011;8463;48.094;7.970;2023-03-01T15:41:01;20.90;;;13.30;;
2408;SDS011;8463;48.094;7.970;2023-03-01T15:43:38;15.83;;;12.90;;
2408;SDS011;8463;48.094;7.970;2023-03-01T15:46:25;13.93;;;12.07;;
2408;SDS011;8463;48.094;7.970;2023-03-01T15:49:02;15.40;;;13.00;;
2408;SDS011;8463;48.094;7.970;2023-03-01T15:51:32;16.03;;;12.60;;
2408;SDS011;8463;48.094;7.970;2023-03-01T15:54:00;14.43;;;12.90;;
2408;SDS011;8463;48.094;7.970;2023-03-01T15:56:42;13.80;;;11.77;;
2408;SDS011;8463;48.094;7.970;2023-03-01T15:59:09;13.53;;;11.37;;
2408;SDS011;8463;48.094;7.970;2023-03-01T16:01:43;14.60;;;11.37;;
2408;SDS011;8463;48.094;7.970;2023-03-01T16:04:10;13.73;;;11.37;;
2408;SDS011;8463;48.094;7.970;2023-03-01T16:06:41;16.63;;;12.43;;
2408;SDS011;8463;48.094;7.970;2023-03-01T16:09:07;14.13;;;11.23;;
2408;SDS011;8463;48.094;7.970;2023-03-01T16:11:32;17.97;;;13.50;;
2408;SDS011;8463;48.094;7.970;2023-03-01T16:14:01;18.33;;;12.93;;
2408;SDS011;8463;48.094;7.970;2023-03-01T16:16:27;20.73;;;15.40;;
2408;SDS011;8463;48.094;7.970;2023-03-01T16:18:53;20.20;;;15.80;;
2408;SDS011;8463;48.094;7.970;2023-03-01T16:21:20;16.13;;;12.50;;
2408;SDS011;8463;48.094;7.970;2023-03-01T16:23:48;19.67;;;13.77;;
2408;SDS011;8463;48.094;7.970;2023-03-01T16:26:14;18.37;;;13.60;;
2408;SDS011;8463;48.094;7.970;2023-03-01T16:28:41;18.40;;;14.70;;
2408;SDS011;8463;48.094;7.970;2023-03-01T16:31:07;14.83;;;11.60;;
2408;SDS011;8463;48.094;7.970;2023-03-01T16:33:34;13.83;;;12.30;;
2408;SDS011;8463;48.094;7.970;2023-03-01T16:36:05;16.73;;;12.07;;
2408;SDS011;8463;48.094;7.970;2023-03-01T16:38:33;16.67;;;13.20;;
2408;SDS011;8463;48.094;7.970;2023-03-01T16:40:59;18.83;;;12.60;;
2408;SDS011;8463;48.094;7.970;2023-03-01T16:43:25;14.70;;;11.90;;
2408;SDS011;8463;48.094;7.970;2023-03-01T16:45:51;15.77;;;11.70;;
2408;SDS011;8463;48.094;7.970;2023-03-01T16:48:16;17.53;;;13.00;;
2408;SDS011;8463;48.094;7.970;2023-03-01T16:50:42;19.37;;;13.70;;
2408;SDS011;8463;48.094;7.970;2023-03-01T16:53:08;17.73;;;13.20;;
2408;SDS011;8463;48.094;7.970;2023-03-01T16:55:34;14.80;;;11.50;;
2408;SDS011;8463;48.094;7.970;2023-03-01T16:58:02;11.87;;;9.70;;
2408;SDS011;8463;48.094;7.970;2023-03-01T17:00:29;13.93;;;9.13;;
2408;SDS011;8463;48.094;7.970;2023-03-01T17:02:55;11.03;;;9.33;;
2408;SDS011;8463;48.094;7.970;2023-03-01T17:05:22;14.27;;;8.63;;
2408;SDS011;8463;48.094;7.970;2023-03-01T17:07:49;11.20;;;8.87;;
2408;SDS011;8463;48.094;7.970;2023-03-01T17:10:15;11.87;;;9.30;;
2408;SDS011;8463;48.094;7.970;2023-03-01T17:12:41;11.20;;;9.40;;
2408;SDS011;8463;48.094;7.970;2023-03-01T17:15:07;13.87;;;9.17;;
2408;SDS011;8463;48.094;7.970;2023-03-01T17:17:33;12.77;;;10.93;;